createdAt,value
2019-02-28T00:00:41.456Z,8.40
2019-02-28T00:03:09.866Z,8.30
2019-02-28T00:05:39.064Z,8.40
2019-02-28T00:08:07.450Z,8.50
2019-02-28T00:10:37.792Z,8.50
2019-02-28T00:13:06.052Z,8.40
2019-02-28T00:15:34.310Z,8.40
2019-02-28T00:18:03.696Z,8.30
2019-02-28T00:20:32.647Z,8.40
2019-02-28T00:23:00.932Z,8.40
2019-02-28T00:25:29.189Z,8.40
2019-02-28T00:27:57.533Z,8.40
2019-02-28T00:30:25.798Z,8.40
2019-02-28T00:32:56.329Z,8.40
2019-02-28T00:35:24.035Z,8.40
2019-02-28T00:37:52.357Z,8.40
2019-02-28T00:40:20.625Z,8.40
2019-02-28T00:42:50.869Z,8.20
2019-02-28T00:45:18.846Z,8.10
2019-02-28T00:47:47.689Z,8.10
2019-02-28T00:50:16.648Z,8.10
2019-02-28T00:52:44.913Z,8.00
2019-02-28T00:55:15.573Z,7.80
2019-02-28T00:57:43.912Z,7.80
2019-02-28T01:00:15.533Z,7.70
2019-02-28T01:02:43.778Z,7.50
2019-02-28T01:05:12.024Z,7.40
2019-02-28T01:07:42.627Z,7.40
2019-02-28T01:10:11.818Z,7.50
2019-02-28T01:12:40.078Z,7.50
2019-02-28T01:15:16.162Z,7.60
2019-02-28T01:17:44.441Z,7.40
2019-02-28T01:20:16.025Z,7.40
2019-02-28T01:22:42.669Z,7.50
2019-02-28T01:25:13.440Z,7.40
2019-02-28T01:27:41.716Z,7.30
2019-02-28T01:30:14.992Z,7.20
2019-02-28T01:32:43.271Z,7.20
2019-02-28T01:35:11.583Z,7.10
2019-02-28T01:37:39.833Z,7.10
2019-02-28T01:40:10.033Z,7.10
2019-02-28T01:42:38.288Z,7.10
2019-02-28T01:45:09.778Z,7.10
2019-02-28T01:47:38.668Z,7.10
2019-02-28T01:50:09.333Z,7.10
2019-02-28T01:52:37.565Z,7.20
2019-02-28T01:55:07.660Z,7.00
2019-02-28T01:57:35.924Z,7.00
2019-02-28T02:00:07.062Z,7.00
2019-02-28T02:02:38.031Z,7.00
2019-02-28T02:05:06.511Z,7.00
2019-02-28T02:07:35.241Z,7.00
2019-02-28T02:10:04.490Z,6.90
2019-02-28T02:12:32.750Z,6.80
2019-02-28T02:15:01.017Z,6.80
2019-02-28T02:17:29.284Z,6.80
2019-02-28T02:19:57.549Z,6.80
2019-02-28T02:22:25.810Z,6.80
2019-02-28T02:24:54.056Z,6.70
2019-02-28T02:27:22.333Z,6.80
2019-02-28T02:29:50.569Z,6.80
2019-02-28T02:32:18.854Z,6.80
2019-02-28T02:34:47.159Z,6.60
2019-02-28T02:37:15.398Z,6.80
2019-02-28T02:39:43.676Z,6.70
2019-02-28T02:42:12.845Z,6.60
2019-02-28T02:44:41.178Z,6.60
2019-02-28T02:47:09.406Z,6.40
2019-02-28T02:49:37.661Z,6.30
2019-02-28T02:52:05.906Z,6.20
2019-02-28T02:54:34.182Z,6.20
2019-02-28T02:57:02.438Z,6.20
2019-02-28T02:59:37.561Z,6.20
2019-02-28T03:02:00.692Z,6.20
2019-02-28T03:04:28.950Z,6.10
2019-02-28T03:06:57.219Z,6.10
2019-02-28T03:09:25.482Z,6.10
2019-02-28T03:11:57.697Z,6.10
2019-02-28T03:14:23.713Z,6.10
2019-02-28T03:16:52.013Z,6.10
2019-02-28T03:19:20.278Z,6.10
2019-02-28T03:21:52.590Z,6.00
2019-02-28T03:24:18.579Z,6.10
2019-02-28T03:26:46.857Z,6.00
2019-02-28T03:29:15.121Z,6.00
2019-02-28T03:31:54.936Z,5.90
2019-02-28T03:34:14.245Z,5.90
2019-02-28T03:36:42.680Z,5.90
2019-02-28T03:39:10.958Z,5.90
2019-02-28T03:41:39.190Z,6.00
2019-02-28T03:44:07.465Z,5.90
2019-02-28T03:46:35.713Z,5.90
2019-02-28T03:49:11.187Z,5.90
2019-02-28T03:51:34.054Z,5.90
2019-02-28T03:54:02.390Z,5.90
2019-02-28T03:56:30.650Z,5.80
2019-02-28T03:58:58.899Z,5.80
2019-02-28T04:01:27.166Z,5.70
2019-02-28T04:03:55.411Z,5.60
2019-02-28T04:06:23.661Z,5.60
2019-02-28T04:08:51.895Z,5.60
2019-02-28T04:11:20.174Z,5.60
2019-02-28T04:13:52.405Z,5.60
2019-02-28T04:16:18.483Z,5.60
2019-02-28T04:19:06.186Z,5.40
2019-02-28T04:21:34.493Z,5.40
2019-02-28T04:24:02.766Z,5.30
2019-02-28T04:26:31.142Z,5.20
2019-02-28T04:28:59.402Z,5.20
2019-02-28T04:31:27.689Z,5.20
2019-02-28T04:33:55.952Z,5.30
2019-02-28T04:36:24.213Z,5.30
2019-02-28T04:38:52.534Z,5.40
2019-02-28T04:41:20.782Z,5.30
2019-02-28T04:43:49.054Z,5.40
2019-02-28T04:46:17.296Z,5.30
2019-02-28T04:48:48.201Z,5.40
2019-02-28T04:51:15.530Z,5.40
2019-02-28T04:53:43.773Z,5.40
2019-02-28T04:56:12.313Z,5.50
2019-02-28T04:58:40.667Z,5.40
2019-02-28T05:01:09.272Z,5.30
2019-02-28T05:03:38.908Z,5.30
2019-02-28T05:06:07.145Z,5.20
2019-02-28T05:08:38.660Z,5.20
2019-02-28T05:11:05.397Z,5.30
2019-02-28T05:13:33.634Z,5.30
2019-02-28T05:16:01.894Z,5.30
2019-02-28T05:18:30.160Z,5.20
2019-02-28T05:20:58.413Z,5.30
2019-02-28T05:23:26.677Z,5.30
2019-02-28T05:25:54.922Z,5.30
2019-02-28T05:28:23.188Z,5.40
2019-02-28T05:30:53.666Z,5.30
2019-02-28T05:33:21.391Z,5.30
2019-02-28T05:35:49.643Z,5.30
2019-02-28T05:38:37.338Z,5.30
2019-02-28T05:41:05.582Z,5.30
2019-02-28T05:43:33.826Z,5.30
2019-02-28T05:46:02.088Z,5.30
2019-02-28T05:48:30.337Z,5.40
2019-02-28T05:50:58.595Z,5.30
2019-02-28T05:53:26.870Z,5.30
2019-02-28T05:55:58.917Z,5.30
2019-02-28T05:58:25.165Z,5.30
2019-02-28T06:00:53.427Z,5.30
2019-02-28T06:03:21.696Z,5.30
2019-02-28T06:05:49.957Z,5.20
2019-02-28T06:08:18.227Z,5.20
2019-02-28T06:10:46.485Z,5.30
2019-02-28T06:13:15.340Z,5.30
2019-02-28T06:15:44.749Z,5.30
2019-02-28T06:18:12.991Z,5.30
2019-02-28T06:20:41.258Z,5.30
2019-02-28T06:23:10.163Z,5.20
2019-02-28T06:25:38.541Z,5.30
2019-02-28T06:28:06.806Z,5.40
2019-02-28T06:30:35.050Z,5.40
2019-02-28T06:33:03.302Z,5.40
2019-02-28T06:35:31.555Z,5.30
2019-02-28T06:37:59.817Z,5.30
2019-02-28T06:40:32.577Z,5.40
2019-02-28T06:42:58.073Z,5.30
2019-02-28T06:45:26.326Z,5.20
2019-02-28T06:47:54.577Z,5.20
2019-02-28T06:50:22.849Z,5.20
2019-02-28T06:52:51.166Z,5.30
2019-02-28T06:55:21.080Z,5.20
2019-02-28T06:57:49.332Z,5.20
2019-02-28T07:00:17.728Z,5.20
2019-02-28T07:02:46.003Z,5.30
2019-02-28T07:05:14.310Z,5.30
2019-02-28T07:07:45.777Z,5.40
2019-02-28T07:10:16.908Z,5.40
2019-02-28T07:12:45.175Z,5.40
2019-02-28T07:15:13.810Z,5.50
2019-02-28T07:17:42.587Z,5.50
2019-02-28T07:20:35.069Z,5.50
2019-02-28T07:23:03.046Z,5.50
2019-02-28T07:25:33.084Z,5.50
2019-02-28T07:28:02.444Z,5.40
2019-02-28T07:30:30.798Z,5.50
2019-02-28T07:32:59.043Z,5.50
2019-02-28T07:35:32.892Z,5.50
2019-02-28T07:37:57.309Z,5.50
2019-02-28T07:40:25.569Z,5.60
2019-02-28T07:42:53.844Z,5.60
2019-02-28T07:45:22.109Z,5.70
2019-02-28T07:47:52.705Z,5.70
2019-02-28T07:50:20.395Z,5.70
2019-02-28T07:52:48.654Z,5.80
2019-02-28T07:55:20.925Z,5.70
2019-02-28T07:57:53.294Z,5.70
2019-02-28T08:00:25.540Z,5.70
2019-02-28T08:02:53.895Z,5.70
2019-02-28T08:05:22.158Z,5.70
2019-02-28T08:07:52.296Z,5.70
2019-02-28T08:10:25.846Z,5.80
2019-02-28T08:12:54.089Z,5.80
2019-02-28T08:15:24.656Z,5.90
2019-02-28T08:17:52.990Z,5.90
2019-02-28T08:20:21.239Z,5.90
2019-02-28T08:22:49.515Z,5.90
2019-02-28T08:25:17.769Z,5.90
2019-02-28T08:27:46.019Z,6.00
2019-02-28T08:30:19.455Z,6.00
2019-02-28T08:32:47.203Z,6.00
2019-02-28T08:35:15.730Z,6.00
2019-02-28T08:37:43.972Z,6.00
2019-02-28T08:40:15.784Z,6.00
2019-02-28T08:42:44.587Z,6.00
2019-02-28T08:45:14.802Z,5.90
2019-02-28T08:47:43.069Z,5.90
2019-02-28T08:50:20.504Z,5.90
2019-02-28T08:52:49.238Z,5.90
2019-02-28T08:55:17.499Z,5.90
2019-02-28T08:57:54.443Z,6.10
2019-02-28T09:00:42.737Z,6.00
2019-02-28T09:03:10.998Z,6.10
2019-02-28T09:05:39.230Z,6.00
2019-02-28T09:08:07.494Z,6.10
2019-02-28T09:10:37.434Z,6.20
2019-02-28T09:13:08.777Z,6.30
2019-02-28T09:15:35.901Z,6.00
2019-02-28T09:18:04.218Z,5.90
2019-02-28T09:20:32.471Z,5.90
2019-02-28T09:23:02.173Z,5.80
2019-02-28T09:25:30.724Z,5.90
2019-02-28T09:27:58.997Z,5.80
2019-02-28T09:30:30.615Z,5.80
2019-02-28T09:32:59.021Z,5.80
2019-02-28T09:35:27.270Z,5.70
2019-02-28T09:37:55.537Z,5.60
2019-02-28T09:40:25.805Z,5.70
2019-02-28T09:42:53.765Z,5.90
2019-02-28T09:45:29.477Z,6.10
2019-02-28T09:48:00.738Z,6.10
2019-02-28T09:50:27.741Z,6.30
2019-02-28T09:52:55.982Z,6.10
2019-02-28T09:55:24.256Z,6.00
2019-02-28T09:57:54.806Z,6.10
2019-02-28T10:00:23.818Z,6.10
2019-02-28T10:02:53.075Z,6.00
2019-02-28T10:05:21.496Z,6.10
2019-02-28T10:07:49.809Z,6.20
2019-02-28T10:10:27.056Z,6.10
2019-02-28T10:12:56.879Z,6.20
2019-02-28T10:15:25.492Z,6.20
2019-02-28T10:17:53.762Z,6.30
2019-02-28T10:20:28.284Z,6.20
2019-02-28T10:22:56.858Z,6.10
2019-02-28T10:25:25.113Z,5.90
2019-02-28T10:27:54.584Z,6.00
2019-02-28T10:30:31.726Z,6.20
2019-02-28T10:32:56.930Z,6.30
2019-02-28T10:35:25.169Z,6.10
2019-02-28T10:37:57.044Z,6.10
2019-02-28T10:40:25.266Z,6.20
2019-02-28T10:42:53.530Z,6.00
2019-02-28T10:45:22.301Z,6.20
2019-02-28T10:47:50.638Z,6.10
2019-02-28T10:50:32.189Z,6.20
2019-02-28T10:52:56.578Z,6.20
2019-02-28T10:55:24.837Z,6.20
2019-02-28T10:57:53.096Z,6.30
2019-02-28T11:00:25.810Z,6.50
2019-02-28T11:02:56.670Z,6.60
2019-02-28T11:05:29.110Z,6.70
2019-02-28T11:07:57.351Z,6.80
2019-02-28T11:10:28.945Z,6.70
2019-02-28T11:12:57.935Z,6.80
2019-02-28T11:15:26.323Z,6.80
2019-02-28T11:17:54.569Z,6.70
2019-02-28T11:20:26.268Z,6.70
2019-02-28T11:22:52.812Z,6.60
2019-02-28T11:25:22.890Z,6.60
2019-02-28T11:27:53.693Z,6.70
2019-02-28T11:30:24.129Z,6.80
2019-02-28T11:32:52.398Z,6.90
2019-02-28T11:35:23.188Z,7.00
2019-02-28T11:37:50.622Z,7.00
2019-02-28T11:40:40.496Z,6.90
2019-02-28T11:43:09.875Z,7.00
2019-02-28T11:46:03.123Z,7.00
2019-02-28T11:48:31.414Z,7.00
2019-02-28T11:50:59.678Z,7.00
2019-02-28T11:53:27.938Z,7.20
2019-02-28T11:55:56.204Z,7.00
2019-02-28T11:58:24.529Z,6.80
2019-02-28T12:00:52.794Z,6.80
2019-02-28T12:03:21.045Z,6.80
2019-02-28T12:05:50.547Z,6.90
2019-02-28T12:08:19.274Z,7.00
2019-02-28T12:10:47.549Z,7.00
2019-02-28T12:13:16.549Z,6.90
2019-02-28T12:15:47.187Z,7.00
2019-02-28T12:18:15.595Z,7.00
2019-02-28T12:20:43.854Z,7.00
2019-02-28T12:23:12.117Z,7.00
2019-02-28T12:25:42.918Z,6.90
2019-02-28T12:28:10.365Z,7.00
2019-02-28T12:30:40.244Z,7.00
2019-02-28T12:33:08.638Z,6.90
2019-02-28T12:35:40.383Z,6.70
2019-02-28T12:38:06.863Z,6.70
2019-02-28T12:40:59.501Z,6.80
2019-02-28T12:43:27.769Z,6.90
2019-02-28T12:45:56.930Z,7.00
2019-02-28T12:48:27.112Z,7.00
2019-02-28T12:50:55.626Z,6.80
2019-02-28T12:53:25.231Z,6.80
2019-02-28T12:55:53.854Z,6.90
2019-02-28T12:58:22.133Z,7.00
2019-02-28T13:00:50.473Z,6.90
2019-02-28T13:03:20.150Z,6.80
2019-02-28T13:05:49.507Z,6.80
2019-02-28T13:08:18.028Z,6.80
2019-02-28T13:10:46.262Z,6.90
2019-02-28T13:13:14.503Z,6.90
2019-02-28T13:15:45.525Z,7.00
2019-02-28T13:18:12.714Z,6.90
2019-02-28T13:20:40.962Z,6.90
2019-02-28T13:23:09.225Z,6.80
2019-02-28T13:25:37.466Z,6.90
2019-02-28T13:28:06.956Z,6.80
2019-02-28T13:30:40.710Z,6.80
2019-02-28T13:33:11.060Z,6.80
2019-02-28T13:35:46.014Z,6.80
2019-02-28T13:38:17.490Z,6.90
2019-02-28T13:40:44.795Z,6.90
2019-02-28T13:43:19.892Z,6.90
2019-02-28T13:45:42.655Z,7.00
2019-02-28T13:48:10.987Z,6.90
2019-02-28T13:50:39.336Z,6.80
2019-02-28T13:53:17.556Z,6.80
2019-02-28T13:55:39.158Z,6.70
2019-02-28T13:58:07.484Z,6.70
2019-02-28T14:00:44.018Z,6.70
2019-02-28T14:03:10.504Z,6.80
2019-02-28T14:05:41.001Z,7.00
2019-02-28T14:08:11.287Z,7.00
2019-02-28T14:10:39.008Z,7.10
2019-02-28T14:13:07.251Z,7.00
2019-02-28T14:15:47.892Z,6.90
2019-02-28T14:18:15.852Z,6.60
2019-02-28T14:20:44.118Z,6.60
2019-02-28T14:23:12.431Z,6.70
2019-02-28T14:25:41.238Z,6.70
2019-02-28T14:28:09.761Z,6.60
2019-02-28T14:30:38.479Z,6.70
2019-02-28T14:33:07.197Z,6.70
2019-02-28T14:35:38.296Z,6.60
2019-02-28T14:38:05.416Z,6.70
2019-02-28T14:40:33.673Z,6.70
2019-02-28T14:43:02.382Z,6.70
2019-02-28T14:45:35.235Z,6.60
2019-02-28T14:48:05.243Z,6.70
2019-02-28T14:50:35.375Z,6.60
2019-02-28T14:53:05.291Z,6.60
2019-02-28T14:55:33.735Z,6.60
2019-02-28T14:58:02.043Z,6.60
2019-02-28T15:00:35.528Z,6.50
2019-02-28T15:03:04.026Z,6.50
2019-02-28T15:05:40.421Z,6.40
2019-02-28T15:08:11.797Z,6.40
2019-02-28T15:10:40.320Z,6.30
2019-02-28T15:13:10.829Z,6.20
2019-02-28T15:15:39.208Z,6.30
2019-02-28T15:18:10.935Z,6.30
2019-02-28T15:20:37.447Z,6.40
2019-02-28T15:23:05.719Z,6.40
2019-02-28T15:25:33.983Z,6.50
2019-02-28T15:28:02.226Z,6.50
2019-02-28T15:30:39.081Z,6.50
2019-02-28T15:33:07.324Z,6.60
2019-02-28T15:35:35.603Z,6.60
2019-02-28T15:38:05.684Z,6.70
2019-02-28T15:40:40.608Z,6.60
2019-02-28T15:43:09.077Z,6.50
2019-02-28T15:45:37.464Z,6.50
2019-02-28T15:48:05.793Z,6.50
2019-02-28T15:50:34.048Z,6.70
2019-02-28T15:53:02.328Z,6.70
2019-02-28T15:55:30.634Z,6.70
2019-02-28T15:57:58.890Z,6.60
2019-02-28T16:00:32.523Z,6.60
2019-02-28T16:03:00.774Z,6.80
2019-02-28T16:05:29.032Z,6.80
2019-02-28T16:07:57.895Z,6.80
2019-02-28T16:10:31.994Z,6.80
2019-02-28T16:13:00.973Z,6.80
2019-02-28T16:15:29.238Z,6.90
2019-02-28T16:17:57.482Z,6.90
2019-02-28T16:20:28.520Z,6.80
2019-02-28T16:22:55.769Z,6.80
2019-02-28T16:25:32.497Z,6.80
2019-02-28T16:28:00.810Z,6.90
2019-02-28T16:30:32.011Z,6.90
2019-02-28T16:32:59.151Z,6.90
2019-02-28T16:35:28.991Z,6.90
2019-02-28T16:37:57.362Z,6.90
2019-02-28T16:40:27.354Z,6.90
2019-02-28T16:42:55.742Z,6.90
2019-02-28T16:45:43.511Z,6.80
2019-02-28T16:48:11.876Z,7.00
2019-02-28T16:50:40.145Z,7.00
2019-02-28T16:53:15.019Z,7.00
2019-02-28T16:55:38.474Z,7.00
2019-02-28T16:58:06.783Z,7.00
2019-02-28T17:00:35.028Z,7.00
2019-02-28T17:03:04.171Z,7.00
2019-02-28T17:05:33.275Z,7.00
2019-02-28T17:08:01.546Z,7.00
2019-02-28T17:10:40.039Z,6.90
2019-02-28T17:13:16.596Z,6.80
2019-02-28T17:15:46.510Z,6.70
2019-02-28T17:18:18.533Z,6.70
2019-02-28T17:20:46.365Z,6.70
2019-02-28T17:23:14.705Z,6.60
2019-02-28T17:25:42.950Z,6.50
2019-02-28T17:28:16.162Z,6.50
2019-02-28T17:30:48.837Z,6.60
2019-02-28T17:33:17.100Z,6.50
2019-02-28T17:35:45.357Z,6.40
2019-02-28T17:38:13.631Z,6.40
2019-02-28T17:40:41.895Z,6.50
2019-02-28T17:43:10.126Z,6.50
2019-02-28T17:45:38.379Z,6.50
2019-02-28T17:48:24.887Z,6.40
2019-02-28T17:51:22.009Z,6.50
2019-02-28T17:54:04.083Z,6.40
2019-02-28T17:56:53.711Z,6.40
2019-02-28T17:59:52.151Z,6.40
2019-02-28T18:02:49.733Z,6.40
2019-02-28T18:05:47.816Z,6.30
2019-02-28T18:08:32.213Z,6.20
2019-02-28T18:11:21.321Z,6.30
2019-02-28T18:14:08.084Z,6.30
2019-02-28T18:16:42.704Z,6.40
2019-02-28T18:19:33.067Z,6.40
2019-02-28T18:22:12.909Z,6.40
2019-02-28T18:24:54.174Z,6.30
2019-02-28T18:28:04.341Z,6.20
2019-02-28T18:30:52.418Z,6.20
2019-02-28T18:33:20.734Z,6.20
2019-02-28T18:35:48.978Z,6.10
2019-02-28T18:38:17.250Z,6.10
2019-02-28T18:40:45.519Z,6.00
2019-02-28T18:43:13.782Z,6.00
2019-02-28T18:45:42.051Z,6.00
2019-02-28T18:48:11.369Z,6.00
2019-02-28T18:50:39.758Z,6.10
2019-02-28T18:53:08.030Z,6.00
2019-02-28T18:55:36.275Z,6.00
2019-02-28T18:58:04.535Z,6.10
2019-02-28T19:00:32.798Z,6.00
2019-02-28T19:03:01.070Z,5.90
2019-02-28T19:05:29.315Z,5.90
2019-02-28T19:07:57.573Z,5.90
2019-02-28T19:10:25.858Z,6.00
2019-02-28T19:12:54.166Z,6.00
2019-02-28T19:15:22.422Z,6.00
2019-02-28T19:17:50.693Z,6.00
2019-02-28T19:20:18.934Z,5.90
2019-02-28T19:22:47.208Z,5.90
2019-02-28T19:25:15.443Z,5.90
2019-02-28T19:27:43.717Z,5.90
2019-02-28T19:30:14.209Z,5.90
2019-02-28T19:32:42.670Z,5.90
2019-02-28T19:35:10.899Z,5.90
2019-02-28T19:37:39.142Z,5.90
2019-02-28T19:40:09.836Z,6.00
2019-02-28T19:42:38.104Z,5.80
2019-02-28T19:45:12.314Z,5.80
2019-02-28T19:47:40.573Z,5.90
2019-02-28T19:50:10.475Z,5.90
2019-02-28T19:52:38.737Z,6.00
2019-02-28T19:55:12.989Z,5.90
2019-02-28T19:57:41.368Z,5.90
2019-02-28T20:00:12.959Z,5.90
2019-02-28T20:02:41.209Z,5.80
2019-02-28T20:05:10.439Z,5.90
2019-02-28T20:07:38.693Z,5.90
2019-02-28T20:10:12.113Z,5.90
2019-02-28T20:12:40.376Z,5.80
2019-02-28T20:15:11.219Z,6.00
2019-02-28T20:17:39.466Z,6.00
2019-02-28T20:20:35.898Z,5.80
2019-02-28T20:23:04.201Z,5.90
2019-02-28T20:25:32.453Z,6.10
2019-02-28T20:28:00.726Z,6.20
2019-02-28T20:30:29.163Z,6.30
2019-02-28T20:32:57.410Z,6.30
2019-02-28T20:35:26.854Z,6.30
2019-02-28T20:37:55.198Z,6.10
2019-02-28T20:40:44.483Z,6.00
2019-02-28T20:43:12.733Z,6.00
2019-02-28T20:45:41.000Z,5.90
2019-02-28T20:48:09.256Z,6.00
2019-02-28T20:50:40.354Z,6.10
2019-02-28T20:53:08.893Z,6.00
2019-02-28T20:55:37.140Z,6.00
2019-02-28T20:58:05.386Z,5.90
2019-02-28T21:00:33.637Z,6.10
2019-02-28T21:03:01.908Z,6.20
2019-02-28T21:05:30.160Z,6.00
2019-02-28T21:07:58.500Z,5.80
2019-02-28T21:10:26.757Z,5.80
2019-02-28T21:12:55.002Z,5.80
2019-02-28T21:15:24.831Z,5.60
2019-02-28T21:17:53.187Z,5.60
2019-02-28T21:20:21.425Z,5.70
2019-02-28T21:22:49.669Z,5.80
2019-02-28T21:25:18.577Z,5.80
2019-02-28T21:27:46.822Z,5.80
2019-02-28T21:30:23.269Z,5.80
2019-02-28T21:32:51.519Z,5.70
2019-02-28T21:35:19.767Z,5.70
2019-02-28T21:37:48.513Z,5.80
2019-02-28T21:40:17.998Z,5.80
2019-02-28T21:42:46.259Z,5.70
2019-02-28T21:45:41.521Z,5.80
2019-02-28T21:48:09.854Z,5.80
2019-02-28T21:50:38.111Z,5.80
2019-02-28T21:53:06.458Z,5.70
2019-02-28T21:55:34.724Z,5.80
2019-02-28T21:58:02.980Z,6.10
2019-02-28T22:00:31.954Z,6.10
2019-02-28T22:03:00.205Z,6.10
2019-02-28T22:05:28.441Z,6.20
2019-02-28T22:07:56.713Z,6.00
2019-02-28T22:10:24.961Z,6.00
2019-02-28T22:12:53.207Z,6.10
2019-02-28T22:15:22.601Z,6.00
2019-02-28T22:17:50.913Z,6.00
2019-02-28T22:20:19.165Z,6.10
2019-02-28T22:22:47.426Z,6.20
2019-02-28T22:25:16.227Z,6.20
2019-02-28T22:27:44.479Z,6.20
2019-02-28T22:30:24.758Z,6.30
2019-02-28T22:32:57.501Z,6.20
2019-02-28T22:35:27.390Z,6.20
2019-02-28T22:37:55.639Z,6.20
2019-02-28T22:40:23.890Z,6.10
2019-02-28T22:42:52.141Z,6.10
2019-02-28T22:45:20.409Z,6.10
2019-02-28T22:47:48.671Z,6.20
2019-02-28T22:50:16.925Z,6.20
2019-02-28T22:52:45.175Z,6.30
2019-02-28T22:55:13.420Z,6.30
2019-02-28T22:57:41.675Z,6.40
2019-02-28T23:00:31.406Z,6.30
2019-02-28T23:02:59.677Z,6.40
2019-02-28T23:05:27.938Z,6.50
2019-02-28T23:07:57.346Z,6.50
2019-02-28T23:10:25.820Z,6.50
2019-02-28T23:12:54.065Z,6.50
2019-02-28T23:15:22.324Z,6.50
2019-02-28T23:17:50.587Z,6.60
2019-02-28T23:20:18.857Z,6.50
2019-02-28T23:22:47.101Z,6.50
2019-02-28T23:25:15.360Z,6.50
2019-02-28T23:27:43.595Z,6.50
2019-02-28T23:30:21.299Z,6.50
2019-02-28T23:32:55.413Z,6.40
2019-02-28T23:35:27.064Z,6.40
2019-02-28T23:37:55.332Z,6.40
2019-02-28T23:40:23.593Z,6.50
2019-02-28T23:42:51.826Z,6.50
2019-02-28T23:45:20.098Z,6.40
2019-02-28T23:47:48.349Z,6.40
2019-02-28T23:50:16.597Z,6.40
2019-02-28T23:52:44.837Z,6.40
2019-02-28T23:55:13.078Z,6.40
2019-02-28T23:57:41.334Z,6.30
